sensor_id;sensor_type;location;lat;lon;timestamp;P1;durP1;ratioP1;P2;durP2;ratioP2
4452;SDS011;2239;48.152;11.584;2024-03-23T00:53:07;3.17;;;2.00;;
4452;SDS011;2239;48.152;11.584;2024-03-23T00:55:33;2.70;;;1.87;;
4452;SDS011;2239;48.152;11.584;2024-03-23T00:57:59;3.03;;;1.70;;
4452;SDS011;2239;48.152;11.584;2024-03-23T01:00:24;3.30;;;1.70;;
4452;SDS011;2239;48.152;11.584;2024-03-23T01:02:50;2.30;;;1.90;;
4452;SDS011;2239;48.152;11.584;2024-03-23T01:05:16;2.50;;;1.90;;
4452;SDS011;2239;48.152;11.584;2024-03-23T01:07:41;4.30;;;2.00;;
4452;SDS011;2239;48.152;11.584;2024-03-23T01:10:07;2.60;;;1.60;;
4452;SDS011;2239;48.152;11.584;2024-03-23T01:12:33;4.13;;;2.00;;
4452;SDS011;2239;48.152;11.584;2024-03-23T01:14:59;3.87;;;1.70;;
4452;SDS011;2239;48.152;11.584;2024-03-23T01:17:24;5.67;;;2.07;;
4452;SDS011;2239;48.152;11.584;2024-03-23T01:19:50;3.03;;;1.73;;
4452;SDS011;2239;48.152;11.584;2024-03-23T01:22:16;2.53;;;1.80;;
4452;SDS011;2239;48.152;11.584;2024-03-23T01:24:41;1.87;;;1.43;;
4452;SDS011;2239;48.152;11.584;2024-03-23T01:27:08;3.40;;;1.80;;
4452;SDS011;2239;48.152;11.584;2024-03-23T01:29:34;2.20;;;1.80;;
4452;SDS011;2239;48.152;11.584;2024-03-23T01:31:59;1.50;;;1.30;;
4452;SDS011;2239;48.152;11.584;2024-03-23T01:34:25;4.17;;;1.73;;
4452;SDS011;2239;48.152;11.584;2024-03-23T01:36:51;5.30;;;1.70;;
4452;SDS011;2239;48.152;11.584;2024-03-23T01:39:17;5.13;;;1.93;;
4452;SDS011;2239;48.152;11.584;2024-03-23T01:41:43;2.93;;;1.93;;
4452;SDS011;2239;48.152;11.584;2024-03-23T01:44:08;3.73;;;1.90;;
4452;SDS011;2239;48.152;11.584;2024-03-23T01:46:36;2.57;;;2.00;;
4452;SDS011;2239;48.152;11.584;2024-03-23T01:49:03;3.30;;;2.00;;
4452;SDS011;2239;48.152;11.584;2024-03-23T01:51:32;3.03;;;1.90;;
4452;SDS011;2239;48.152;11.584;2024-03-23T01:54:00;5.50;;;2.00;;
4452;SDS011;2239;48.152;11.584;2024-03-23T01:56:32;2.70;;;1.90;;
4452;SDS011;2239;48.152;11.584;2024-03-23T01:59:00;4.60;;;1.80;;
4452;SDS011;2239;48.152;11.584;2024-03-23T02:01:30;3.83;;;1.80;;
4452;SDS011;2239;48.152;11.584;2024-03-23T02:04:02;9.83;;;2.37;;
4452;SDS011;2239;48.152;11.584;2024-03-23T02:06:28;5.40;;;2.40;;
4452;SDS011;2239;48.152;11.584;2024-03-23T02:08:57;3.30;;;1.80;;
4452;SDS011;2239;48.152;11.584;2024-03-23T02:11:23;1.93;;;1.67;;
4452;SDS011;2239;48.152;11.584;2024-03-23T02:13:48;6.03;;;1.90;;
4452;SDS011;2239;48.152;11.584;2024-03-23T02:16:14;2.70;;;1.70;;
4452;SDS011;2239;48.152;11.584;2024-03-23T02:18:40;3.03;;;1.93;;
4452;SDS011;2239;48.152;11.584;2024-03-23T02:21:06;5.23;;;2.27;;
4452;SDS011;2239;48.152;11.584;2024-03-23T02:23:31;3.33;;;1.60;;
4452;SDS011;2239;48.152;11.584;2024-03-23T02:25:57;3.53;;;1.93;;
4452;SDS011;2239;48.152;11.584;2024-03-23T02:28:23;2.80;;;1.90;;
4452;SDS011;2239;48.152;11.584;2024-03-23T02:30:49;3.80;;;2.00;;
4452;SDS011;2239;48.152;11.584;2024-03-23T02:33:15;3.53;;;1.80;;
4452;SDS011;2239;48.152;11.584;2024-03-23T02:35:41;4.17;;;1.70;;
4452;SDS011;2239;48.152;11.584;2024-03-23T02:38:07;2.97;;;1.80;;
4452;SDS011;2239;48.152;11.584;2024-03-23T02:40:33;1.37;;;1.27;;
4452;SDS011;2239;48.152;11.584;2024-03-23T02:42:58;2.20;;;1.47;;
4452;SDS011;2239;48.152;11.584;2024-03-23T02:45:24;3.90;;;1.93;;
4452;SDS011;2239;48.152;11.584;2024-03-23T02:47:50;2.47;;;1.80;;
4452;SDS011;2239;48.152;11.584;2024-03-23T02:50:17;1.73;;;1.50;;
4452;SDS011;2239;48.152;11.584;2024-03-23T02:52:43;1.73;;;1.50;;
4452;SDS011;2239;48.152;11.584;2024-03-23T02:55:09;3.33;;;2.10;;
4452;SDS011;2239;48.152;11.584;2024-03-23T02:57:35;2.33;;;1.60;;
4452;SDS011;2239;48.152;11.584;2024-03-23T03:00:01;2.90;;;2.00;;
4452;SDS011;2239;48.152;11.584;2024-03-23T03:02:26;4.27;;;2.07;;
4452;SDS011;2239;48.152;11.584;2024-03-23T03:04:52;4.30;;;2.27;;
4452;SDS011;2239;48.152;11.584;2024-03-23T03:07:18;2.20;;;1.50;;
4452;SDS011;2239;48.152;11.584;2024-03-23T03:09:43;2.40;;;1.80;;
4452;SDS011;2239;48.152;11.584;2024-03-23T03:12:09;3.37;;;2.43;;
4452;SDS011;2239;48.152;11.584;2024-03-23T03:14:35;2.70;;;1.83;;
4452;SDS011;2239;48.152;11.584;2024-03-23T03:17:00;3.87;;;1.70;;
4452;SDS011;2239;48.152;11.584;2024-03-23T03:19:26;2.87;;;1.83;;
4452;SDS011;2239;48.152;11.584;2024-03-23T03:21:52;3.73;;;1.80;;
4452;SDS011;2239;48.152;11.584;2024-03-23T03:24:18;5.57;;;1.90;;
4452;SDS011;2239;48.152;11.584;2024-03-23T03:26:44;3.87;;;2.10;;
4452;SDS011;2239;48.152;11.584;2024-03-23T03:29:10;3.50;;;1.83;;
4452;SDS011;2239;48.152;11.584;2024-03-23T03:31:36;3.37;;;2.10;;
4452;SDS011;2239;48.152;11.584;2024-03-23T03:34:03;3.60;;;2.00;;
4452;SDS011;2239;48.152;11.584;2024-03-23T03:36:29;2.67;;;1.90;;
4452;SDS011;2239;48.152;11.584;2024-03-23T03:38:55;5.47;;;2.23;;
4452;SDS011;2239;48.152;11.584;2024-03-23T03:41:20;6.00;;;2.10;;
4452;SDS011;2239;48.152;11.584;2024-03-23T03:43:46;5.60;;;2.77;;
4452;SDS011;2239;48.152;11.584;2024-03-23T03:46:12;3.50;;;2.00;;
4452;SDS011;2239;48.152;11.584;2024-03-23T03:48:37;2.80;;;1.97;;
4452;SDS011;2239;48.152;11.584;2024-03-23T03:51:03;3.83;;;1.67;;
4452;SDS011;2239;48.152;11.584;2024-03-23T03:53:29;3.10;;;2.00;;
4452;SDS011;2239;48.152;11.584;2024-03-23T03:55:56;3.00;;;2.20;;
4452;SDS011;2239;48.152;11.584;2024-03-23T03:58:22;2.70;;;2.10;;
4452;SDS011;2239;48.152;11.584;2024-03-23T04:00:47;4.33;;;2.17;;
4452;SDS011;2239;48.152;11.584;2024-03-23T04:03:13;3.37;;;2.13;;
4452;SDS011;2239;48.152;11.584;2024-03-23T04:05:39;4.87;;;2.30;;
4452;SDS011;2239;48.152;11.584;2024-03-23T04:08:05;3.43;;;1.97;;
4452;SDS011;2239;48.152;11.584;2024-03-23T04:10:32;3.63;;;1.90;;
4452;SDS011;2239;48.152;11.584;2024-03-23T04:12:58;5.20;;;2.30;;
4452;SDS011;2239;48.152;11.584;2024-03-23T04:15:23;4.07;;;2.30;;
4452;SDS011;2239;48.152;11.584;2024-03-23T04:17:49;3.57;;;1.90;;
4452;SDS011;2239;48.152;11.584;2024-03-23T04:20:15;4.57;;;2.57;;
4452;SDS011;2239;48.152;11.584;2024-03-23T04:22:42;2.90;;;1.90;;
4452;SDS011;2239;48.152;11.584;2024-03-23T04:25:08;3.53;;;2.10;;
4452;SDS011;2239;48.152;11.584;2024-03-23T04:27:38;3.60;;;2.03;;
4452;SDS011;2239;48.152;11.584;2024-03-23T04:30:04;3.67;;;2.00;;
4452;SDS011;2239;48.152;11.584;2024-03-23T04:32:35;3.40;;;1.90;;
4452;SDS011;2239;48.152;11.584;2024-03-23T04:35:01;3.10;;;2.00;;
4452;SDS011;2239;48.152;11.584;2024-03-23T04:37:31;2.07;;;1.70;;
4452;SDS011;2239;48.152;11.584;2024-03-23T04:39:58;4.07;;;2.20;;
4452;SDS011;2239;48.152;11.584;2024-03-23T04:42:24;2.53;;;1.80;;
4452;SDS011;2239;48.152;11.584;2024-03-23T04:44:49;2.97;;;1.80;;
4452;SDS011;2239;48.152;11.584;2024-03-23T04:47:15;3.93;;;1.90;;
4452;SDS011;2239;48.152;11.584;2024-03-23T04:49:41;1.93;;;1.50;;
4452;SDS011;2239;48.152;11.584;2024-03-23T04:52:07;3.00;;;1.83;;
4452;SDS011;2239;48.152;11.584;2024-03-23T04:54:33;2.40;;;1.63;;
4452;SDS011;2239;48.152;11.584;2024-03-23T04:56:59;4.00;;;2.03;;
4452;SDS011;2239;48.152;11.584;2024-03-23T04:59:24;3.23;;;1.90;;
4452;SDS011;2239;48.152;11.584;2024-03-23T05:01:50;3.37;;;1.80;;
4452;SDS011;2239;48.152;11.584;2024-03-23T05:04:16;2.50;;;1.57;;
4452;SDS011;2239;48.152;11.584;2024-03-23T05:06:41;5.33;;;1.90;;
4452;SDS011;2239;48.152;11.584;2024-03-23T05:09:07;4.80;;;1.77;;
4452;SDS011;2239;48.152;11.584;2024-03-23T05:11:37;2.77;;;1.80;;
4452;SDS011;2239;48.152;11.584;2024-03-23T05:14:03;2.53;;;1.80;;
4452;SDS011;2239;48.152;11.584;2024-03-23T05:16:29;4.30;;;1.60;;
4452;SDS011;2239;48.152;11.584;2024-03-23T05:18:55;4.13;;;1.60;;
4452;SDS011;2239;48.152;11.584;2024-03-23T05:21:20;2.73;;;1.70;;
4452;SDS011;2239;48.152;11.584;2024-03-23T05:23:46;2.20;;;1.47;;
4452;SDS011;2239;48.152;11.584;2024-03-23T05:26:12;1.67;;;1.57;;
4452;SDS011;2239;48.152;11.584;2024-03-23T05:28:38;2.27;;;1.70;;
4452;SDS011;2239;48.152;11.584;2024-03-23T05:31:04;2.60;;;1.70;;
4452;SDS011;2239;48.152;11.584;2024-03-23T05:33:30;4.20;;;1.60;;
4452;SDS011;2239;48.152;11.584;2024-03-23T05:35:56;3.83;;;1.97;;
4452;SDS011;2239;48.152;11.584;2024-03-23T05:38:23;2.40;;;1.83;;
4452;SDS011;2239;48.152;11.584;2024-03-23T05:43:21;4.63;;;1.90;;
4452;SDS011;2239;48.152;11.584;2024-03-23T05:45:54;2.10;;;1.40;;
4452;SDS011;2239;48.152;11.584;2024-03-23T05:48:30;4.67;;;1.97;;
4452;SDS011;2239;48.152;11.584;2024-03-23T05:50:56;2.90;;;2.00;;
4452;SDS011;2239;48.152;11.584;2024-03-23T05:53:22;3.07;;;1.60;;
4452;SDS011;2239;48.152;11.584;2024-03-23T05:55:49;3.10;;;1.70;;
4452;SDS011;2239;48.152;11.584;2024-03-23T05:58:16;3.97;;;1.90;;
4452;SDS011;2239;48.152;11.584;2024-03-23T06:00:43;6.10;;;1.63;;
4452;SDS011;2239;48.152;11.584;2024-03-23T06:03:09;2.70;;;1.93;;
4452;SDS011;2239;48.152;11.584;2024-03-23T06:05:35;3.80;;;1.90;;
4452;SDS011;2239;48.152;11.584;2024-03-23T06:08:04;2.40;;;1.80;;
4452;SDS011;2239;48.152;11.584;2024-03-23T06:10:31;3.53;;;1.80;;
4452;SDS011;2239;48.152;11.584;2024-03-23T06:12:57;3.13;;;1.77;;
4452;SDS011;2239;48.152;11.584;2024-03-23T06:15:24;2.67;;;1.63;;
4452;SDS011;2239;48.152;11.584;2024-03-23T06:17:50;6.70;;;1.80;;
4452;SDS011;2239;48.152;11.584;2024-03-23T06:20:15;3.77;;;1.60;;
4452;SDS011;2239;48.152;11.584;2024-03-23T06:22:41;4.00;;;1.67;;
4452;SDS011;2239;48.152;11.584;2024-03-23T06:25:07;2.80;;;1.40;;
4452;SDS011;2239;48.152;11.584;2024-03-23T06:27:33;1.83;;;1.43;;
4452;SDS011;2239;48.152;11.584;2024-03-23T06:29:59;2.07;;;1.67;;
4452;SDS011;2239;48.152;11.584;2024-03-23T06:32:25;4.00;;;1.77;;
4452;SDS011;2239;48.152;11.584;2024-03-23T06:34:52;3.73;;;1.40;;
4452;SDS011;2239;48.152;11.584;2024-03-23T06:37:18;3.50;;;1.40;;
4452;SDS011;2239;48.152;11.584;2024-03-23T06:39:45;3.07;;;1.57;;
4452;SDS011;2239;48.152;11.584;2024-03-23T06:42:11;4.30;;;1.70;;
4452;SDS011;2239;48.152;11.584;2024-03-23T06:44:37;2.67;;;1.63;;
4452;SDS011;2239;48.152;11.584;2024-03-23T06:47:02;4.10;;;1.60;;
4452;SDS011;2239;48.152;11.584;2024-03-23T06:49:28;3.47;;;1.47;;
4452;SDS011;2239;48.152;11.584;2024-03-23T06:51:54;1.80;;;1.40;;
4452;SDS011;2239;48.152;11.584;2024-03-23T06:54:20;4.20;;;1.90;;
4452;SDS011;2239;48.152;11.584;2024-03-23T06:56:45;1.97;;;1.60;;
4452;SDS011;2239;48.152;11.584;2024-03-23T06:59:11;1.60;;;1.50;;
4452;SDS011;2239;48.152;11.584;2024-03-23T07:01:37;1.87;;;1.57;;
4452;SDS011;2239;48.152;11.584;2024-03-23T07:04:03;3.30;;;1.80;;
4452;SDS011;2239;48.152;11.584;2024-03-23T07:06:29;2.27;;;1.47;;
4452;SDS011;2239;48.152;11.584;2024-03-23T07:08:56;4.07;;;1.77;;
4452;SDS011;2239;48.152;11.584;2024-03-23T07:11:22;2.83;;;1.70;;
4452;SDS011;2239;48.152;11.584;2024-03-23T07:13:51;2.90;;;1.63;;
4452;SDS011;2239;48.152;11.584;2024-03-23T07:16:19;2.20;;;1.53;;
4452;SDS011;2239;48.152;11.584;2024-03-23T07:18:45;5.37;;;1.80;;
4452;SDS011;2239;48.152;11.584;2024-03-23T07:21:11;5.27;;;2.20;;
4452;SDS011;2239;48.152;11.584;2024-03-23T07:23:36;2.53;;;1.90;;
4452;SDS011;2239;48.152;11.584;2024-03-23T07:26:03;5.70;;;1.77;;
4452;SDS011;2239;48.152;11.584;2024-03-23T07:28:30;1.90;;;1.50;;
4452;SDS011;2239;48.152;11.584;2024-03-23T07:31:07;2.20;;;1.60;;
4452;SDS011;2239;48.152;11.584;2024-03-23T07:33:34;4.53;;;1.70;;
4452;SDS011;2239;48.152;11.584;2024-03-23T07:36:01;2.13;;;1.50;;
4452;SDS011;2239;48.152;11.584;2024-03-23T07:38:28;3.17;;;1.60;;
4452;SDS011;2239;48.152;11.584;2024-03-23T07:41:04;2.70;;;1.50;;
4452;SDS011;2239;48.152;11.584;2024-03-23T07:43:33;3.47;;;1.50;;
4452;SDS011;2239;48.152;11.584;2024-03-23T07:45:59;3.10;;;1.97;;
4452;SDS011;2239;48.152;11.584;2024-03-23T07:48:25;3.23;;;1.90;;
4452;SDS011;2239;48.152;11.584;2024-03-23T07:51:16;5.53;;;1.70;;
4452;SDS011;2239;48.152;11.584;2024-03-23T07:53:43;4.03;;;1.90;;
4452;SDS011;2239;48.152;11.584;2024-03-23T07:56:11;3.00;;;1.53;;
4452;SDS011;2239;48.152;11.584;2024-03-23T07:58:37;2.63;;;1.33;;
4452;SDS011;2239;48.152;11.584;2024-03-23T08:01:07;4.43;;;1.60;;
4452;SDS011;2239;48.152;11.584;2024-03-23T08:03:35;2.13;;;1.50;;
4452;SDS011;2239;48.152;11.584;2024-03-23T08:06:23;2.73;;;1.73;;
4452;SDS011;2239;48.152;11.584;2024-03-23T08:08:51;2.13;;;1.60;;
4452;SDS011;2239;48.152;11.584;2024-03-23T08:11:27;2.33;;;1.63;;
4452;SDS011;2239;48.152;11.584;2024-03-23T08:13:54;3.70;;;1.80;;
4452;SDS011;2239;48.152;11.584;2024-03-23T08:16:20;4.53;;;2.03;;
4452;SDS011;2239;48.152;11.584;2024-03-23T08:18:46;1.70;;;1.50;;
4452;SDS011;2239;48.152;11.584;2024-03-23T08:21:12;3.73;;;1.70;;
4452;SDS011;2239;48.152;11.584;2024-03-23T08:23:38;2.67;;;2.03;;
4452;SDS011;2239;48.152;11.584;2024-03-23T08:26:07;3.90;;;1.77;;
4452;SDS011;2239;48.152;11.584;2024-03-23T08:28:37;5.00;;;1.90;;
4452;SDS011;2239;48.152;11.584;2024-03-23T08:31:05;3.93;;;1.93;;
4452;SDS011;2239;48.152;11.584;2024-03-23T08:33:31;4.70;;;2.00;;
4452;SDS011;2239;48.152;11.584;2024-03-23T08:36:01;2.70;;;1.90;;
4452;SDS011;2239;48.152;11.584;2024-03-23T08:38:28;3.20;;;1.70;;
4452;SDS011;2239;48.152;11.584;2024-03-23T08:41:04;2.70;;;1.20;;
4452;SDS011;2239;48.152;11.584;2024-03-23T08:43:40;1.30;;;1.20;;
4452;SDS011;2239;48.152;11.584;2024-03-23T08:46:10;1.17;;;1.07;;
4452;SDS011;2239;48.152;11.584;2024-03-23T08:48:40;2.30;;;1.10;;
4452;SDS011;2239;48.152;11.584;2024-03-23T08:51:09;1.63;;;1.10;;
4452;SDS011;2239;48.152;11.584;2024-03-23T08:53:36;3.80;;;1.70;;
4452;SDS011;2239;48.152;11.584;2024-03-23T08:56:02;1.53;;;1.03;;
4452;SDS011;2239;48.152;11.584;2024-03-23T08:58:30;3.17;;;1.70;;
4452;SDS011;2239;48.152;11.584;2024-03-23T09:00:57;2.93;;;1.50;;
4452;SDS011;2239;48.152;11.584;2024-03-23T09:03:28;3.20;;;1.43;;
4452;SDS011;2239;48.152;11.584;2024-03-23T09:05:54;2.63;;;1.27;;
4452;SDS011;2239;48.152;11.584;2024-03-23T09:08:20;2.07;;;1.30;;
4452;SDS011;2239;48.152;11.584;2024-03-23T09:10:47;2.30;;;1.40;;
4452;SDS011;2239;48.152;11.584;2024-03-23T09:13:13;3.07;;;1.33;;
4452;SDS011;2239;48.152;11.584;2024-03-23T09:15:49;3.00;;;1.40;;
4452;SDS011;2239;48.152;11.584;2024-03-23T09:18:16;2.63;;;1.60;;
4452;SDS011;2239;48.152;11.584;2024-03-23T09:20:42;2.73;;;1.50;;
4452;SDS011;2239;48.152;11.584;2024-03-23T09:23:08;3.23;;;1.50;;
4452;SDS011;2239;48.152;11.584;2024-03-23T09:25:39;2.10;;;1.30;;
4452;SDS011;2239;48.152;11.584;2024-03-23T09:28:06;3.70;;;1.60;;
4452;SDS011;2239;48.152;11.584;2024-03-23T09:30:33;2.57;;;1.53;;
4452;SDS011;2239;48.152;11.584;2024-03-23T09:33:00;2.77;;;1.70;;
4452;SDS011;2239;48.152;11.584;2024-03-23T09:35:26;2.37;;;1.50;;
4452;SDS011;2239;48.152;11.584;2024-03-23T09:37:52;3.27;;;1.83;;
4452;SDS011;2239;48.152;11.584;2024-03-23T09:40:18;2.70;;;1.50;;
4452;SDS011;2239;48.152;11.584;2024-03-23T09:42:44;3.17;;;1.63;;
4452;SDS011;2239;48.152;11.584;2024-03-23T09:45:24;1.90;;;1.20;;
4452;SDS011;2239;48.152;11.584;2024-03-23T09:47:52;1.57;;;1.20;;
4452;SDS011;2239;48.152;11.584;2024-03-23T09:50:19;1.43;;;1.20;;
4452;SDS011;2239;48.152;11.584;2024-03-23T09:52:48;2.50;;;0.90;;
4452;SDS011;2239;48.152;11.584;2024-03-23T09:55:14;1.23;;;0.90;;
4452;SDS011;2239;48.152;11.584;2024-03-23T09:57:40;2.00;;;1.20;;
4452;SDS011;2239;48.152;11.584;2024-03-23T10:00:07;3.50;;;1.00;;
4452;SDS011;2239;48.152;11.584;2024-03-23T10:02:33;1.70;;;0.90;;
4452;SDS011;2239;48.152;11.584;2024-03-23T10:05:00;2.70;;;1.37;;
4452;SDS011;2239;48.152;11.584;2024-03-23T10:07:26;1.63;;;0.90;;
4452;SDS011;2239;48.152;11.584;2024-03-23T10:09:55;1.47;;;0.80;;
4452;SDS011;2239;48.152;11.584;2024-03-23T10:12:21;1.00;;;0.70;;
4452;SDS011;2239;48.152;11.584;2024-03-23T10:14:48;1.50;;;0.90;;
4452;SDS011;2239;48.152;11.584;2024-03-23T10:17:18;1.33;;;0.70;;
4452;SDS011;2239;48.152;11.584;2024-03-23T10:19:45;0.80;;;0.60;;
4452;SDS011;2239;48.152;11.584;2024-03-23T10:22:14;1.10;;;0.70;;
4452;SDS011;2239;48.152;11.584;2024-03-23T10:24:45;0.70;;;0.67;;
4452;SDS011;2239;48.152;11.584;2024-03-23T10:29:44;1.60;;;1.00;;
4452;SDS011;2239;48.152;11.584;2024-03-23T10:32:10;1.53;;;0.97;;
4452;SDS011;2239;48.152;11.584;2024-03-23T10:34:38;1.27;;;0.80;;
4452;SDS011;2239;48.152;11.584;2024-03-23T10:37:04;1.90;;;1.20;;
4452;SDS011;2239;48.152;11.584;2024-03-23T10:39:34;1.33;;;0.90;;
4452;SDS011;2239;48.152;11.584;2024-03-23T10:42:05;0.90;;;0.60;;
4452;SDS011;2239;48.152;11.584;2024-03-23T10:44:35;1.20;;;0.93;;
4452;SDS011;2239;48.152;11.584;2024-03-23T10:47:02;1.00;;;0.77;;
4452;SDS011;2239;48.152;11.584;2024-03-23T10:49:28;2.10;;;0.80;;
4452;SDS011;2239;48.152;11.584;2024-03-23T10:51:56;0.80;;;0.70;;
4452;SDS011;2239;48.152;11.584;2024-03-23T10:54:24;3.47;;;0.70;;
4452;SDS011;2239;48.152;11.584;2024-03-23T10:56:51;0.80;;;0.70;;
4452;SDS011;2239;48.152;11.584;2024-03-23T10:59:25;1.27;;;0.63;;
4452;SDS011;2239;48.152;11.584;2024-03-23T11:01:54;0.90;;;0.60;;
4452;SDS011;2239;48.152;11.584;2024-03-23T11:04:37;0.97;;;0.60;;
4452;SDS011;2239;48.152;11.584;2024-03-23T11:07:28;0.60;;;0.60;;
4452;SDS011;2239;48.152;11.584;2024-03-23T11:09:52;0.70;;;0.50;;
4452;SDS011;2239;48.152;11.584;2024-03-23T11:14:48;1.10;;;0.73;;
4452;SDS011;2239;48.152;11.584;2024-03-23T11:17:19;1.87;;;1.00;;
4452;SDS011;2239;48.152;11.584;2024-03-23T11:25:12;1.63;;;1.00;;
4452;SDS011;2239;48.152;11.584;2024-03-23T11:27:38;0.97;;;0.70;;
4452;SDS011;2239;48.152;11.584;2024-03-23T11:30:23;1.73;;;0.73;;
4452;SDS011;2239;48.152;11.584;2024-03-23T11:32:50;1.10;;;0.90;;
4452;SDS011;2239;48.152;11.584;2024-03-23T11:35:31;0.60;;;0.60;;
4452;SDS011;2239;48.152;11.584;2024-03-23T11:40:35;1.17;;;0.60;;
4452;SDS011;2239;48.152;11.584;2024-03-23T11:43:02;1.77;;;0.93;;
4452;SDS011;2239;48.152;11.584;2024-03-23T11:45:37;1.40;;;0.90;;
4452;SDS011;2239;48.152;11.584;2024-03-23T11:48:05;0.80;;;0.70;;
4452;SDS011;2239;48.152;11.584;2024-03-23T11:50:33;0.90;;;0.80;;
4452;SDS011;2239;48.152;11.584;2024-03-23T11:53:18;2.87;;;0.93;;
4452;SDS011;2239;48.152;11.584;2024-03-23T11:55:46;1.87;;;1.10;;
4452;SDS011;2239;48.152;11.584;2024-03-23T11:58:16;1.90;;;1.00;;
4452;SDS011;2239;48.152;11.584;2024-03-23T12:00:49;1.40;;;1.10;;
4452;SDS011;2239;48.152;11.584;2024-03-23T12:03:16;3.13;;;0.97;;
4452;SDS011;2239;48.152;11.584;2024-03-23T12:05:46;1.23;;;1.00;;
4452;SDS011;2239;48.152;11.584;2024-03-23T12:08:21;5.00;;;0.87;;
4452;SDS011;2239;48.152;11.584;2024-03-23T12:10:54;2.10;;;0.97;;
4452;SDS011;2239;48.152;11.584;2024-03-23T12:13:41;2.10;;;0.90;;
4452;SDS011;2239;48.152;11.584;2024-03-23T12:16:27;1.10;;;0.97;;
4452;SDS011;2239;48.152;11.584;2024-03-23T12:18:53;1.20;;;1.00;;
4452;SDS011;2239;48.152;11.584;2024-03-23T12:21:30;5.80;;;1.00;;
4452;SDS011;2239;48.152;11.584;2024-03-23T12:23:56;1.57;;;1.07;;
4452;SDS011;2239;48.152;11.584;2024-03-23T12:26:22;2.53;;;1.20;;
4452;SDS011;2239;48.152;11.584;2024-03-23T12:28:48;2.10;;;1.20;;
4452;SDS011;2239;48.152;11.584;2024-03-23T12:31:14;3.47;;;0.90;;
4452;SDS011;2239;48.152;11.584;2024-03-23T12:33:39;1.63;;;1.00;;
4452;SDS011;2239;48.152;11.584;2024-03-23T12:36:05;4.60;;;1.20;;
4452;SDS011;2239;48.152;11.584;2024-03-23T12:38:31;3.60;;;1.27;;
4452;SDS011;2239;48.152;11.584;2024-03-23T12:40:56;2.93;;;1.13;;
4452;SDS011;2239;48.152;11.584;2024-03-23T12:43:22;2.20;;;1.30;;
4452;SDS011;2239;48.152;11.584;2024-03-23T12:45:48;2.47;;;1.40;;
4452;SDS011;2239;48.152;11.584;2024-03-23T12:48:14;2.90;;;1.10;;
4452;SDS011;2239;48.152;11.584;2024-03-23T12:50:40;4.80;;;1.13;;
4452;SDS011;2239;48.152;11.584;2024-03-23T12:53:06;3.57;;;1.60;;
4452;SDS011;2239;48.152;11.584;2024-03-23T12:55:31;8.67;;;1.60;;
4452;SDS011;2239;48.152;11.584;2024-03-23T12:57:59;3.00;;;1.50;;
4452;SDS011;2239;48.152;11.584;2024-03-23T13:00:25;2.20;;;1.43;;
4452;SDS011;2239;48.152;11.584;2024-03-23T13:02:51;2.60;;;1.53;;
4452;SDS011;2239;48.152;11.584;2024-03-23T13:05:16;2.70;;;1.33;;
4452;SDS011;2239;48.152;11.584;2024-03-23T13:07:42;3.00;;;1.37;;
4452;SDS011;2239;48.152;11.584;2024-03-23T13:10:08;3.30;;;1.40;;
4452;SDS011;2239;48.152;11.584;2024-03-23T13:12:41;3.60;;;1.30;;
4452;SDS011;2239;48.152;11.584;2024-03-23T13:15:08;3.90;;;1.30;;
4452;SDS011;2239;48.152;11.584;2024-03-23T13:17:34;2.17;;;1.40;;
4452;SDS011;2239;48.152;11.584;2024-03-23T13:19:59;1.70;;;1.37;;
4452;SDS011;2239;48.152;11.584;2024-03-23T13:22:25;3.20;;;1.57;;
4452;SDS011;2239;48.152;11.584;2024-03-23T13:24:50;3.37;;;1.53;;
4452;SDS011;2239;48.152;11.584;2024-03-23T13:27:16;1.90;;;1.33;;
4452;SDS011;2239;48.152;11.584;2024-03-23T13:29:42;2.27;;;1.40;;
4452;SDS011;2239;48.152;11.584;2024-03-23T13:32:08;2.13;;;1.27;;
4452;SDS011;2239;48.152;11.584;2024-03-23T13:34:34;2.70;;;1.30;;
4452;SDS011;2239;48.152;11.584;2024-03-23T13:37:00;4.10;;;1.80;;
4452;SDS011;2239;48.152;11.584;2024-03-23T13:39:26;1.87;;;1.30;;
4452;SDS011;2239;48.152;11.584;2024-03-23T13:41:54;5.07;;;1.50;;
4452;SDS011;2239;48.152;11.584;2024-03-23T13:44:21;2.83;;;1.30;;
4452;SDS011;2239;48.152;11.584;2024-03-23T13:46:46;6.77;;;1.87;;
4452;SDS011;2239;48.152;11.584;2024-03-23T13:49:45;3.40;;;1.57;;
4452;SDS011;2239;48.152;11.584;2024-03-23T13:52:05;4.43;;;1.80;;
4452;SDS011;2239;48.152;11.584;2024-03-23T13:54:32;3.23;;;1.60;;
4452;SDS011;2239;48.152;11.584;2024-03-23T13:56:57;3.10;;;1.57;;
4452;SDS011;2239;48.152;11.584;2024-03-23T13:59:23;4.10;;;1.30;;
4452;SDS011;2239;48.152;11.584;2024-03-23T14:01:49;3.73;;;1.63;;
4452;SDS011;2239;48.152;11.584;2024-03-23T14:04:16;4.30;;;1.90;;
4452;SDS011;2239;48.152;11.584;2024-03-23T14:06:42;6.00;;;2.30;;
4452;SDS011;2239;48.152;11.584;2024-03-23T14:09:10;3.70;;;1.70;;
4452;SDS011;2239;48.152;11.584;2024-03-23T14:11:36;3.87;;;1.80;;
4452;SDS011;2239;48.152;11.584;2024-03-23T14:14:02;5.53;;;2.03;;
4452;SDS011;2239;48.152;11.584;2024-03-23T14:16:31;2.90;;;2.00;;
4452;SDS011;2239;48.152;11.584;2024-03-23T14:18:58;4.87;;;2.30;;
4452;SDS011;2239;48.152;11.584;2024-03-23T14:21:24;3.40;;;1.63;;
4452;SDS011;2239;48.152;11.584;2024-03-23T14:23:49;5.40;;;1.77;;
4452;SDS011;2239;48.152;11.584;2024-03-23T14:26:15;7.00;;;2.40;;
4452;SDS011;2239;48.152;11.584;2024-03-23T14:28:41;4.40;;;1.70;;
4452;SDS011;2239;48.152;11.584;2024-03-23T14:31:07;4.83;;;1.70;;
4452;SDS011;2239;48.152;11.584;2024-03-23T14:33:36;3.90;;;1.60;;
4452;SDS011;2239;48.152;11.584;2024-03-23T14:36:03;3.43;;;1.60;;
4452;SDS011;2239;48.152;11.584;2024-03-23T14:38:29;4.43;;;1.67;;
4452;SDS011;2239;48.152;11.584;2024-03-23T14:40:57;2.00;;;1.20;;
4452;SDS011;2239;48.152;11.584;2024-03-23T14:43:24;3.90;;;1.40;;
4452;SDS011;2239;48.152;11.584;2024-03-23T14:48:38;2.07;;;0.90;;
4452;SDS011;2239;48.152;11.584;2024-03-23T14:51:04;2.50;;;0.90;;
4452;SDS011;2239;48.152;11.584;2024-03-23T14:53:37;4.60;;;0.87;;
4452;SDS011;2239;48.152;11.584;2024-03-23T14:56:07;2.43;;;0.97;;
4452;SDS011;2239;48.152;11.584;2024-03-23T14:58:36;2.33;;;0.90;;
4452;SDS011;2239;48.152;11.584;2024-03-23T15:01:02;1.90;;;1.00;;
4452;SDS011;2239;48.152;11.584;2024-03-23T15:03:29;4.53;;;1.13;;
4452;SDS011;2239;48.152;11.584;2024-03-23T15:05:55;2.10;;;1.03;;
4452;SDS011;2239;48.152;11.584;2024-03-23T15:08:22;2.70;;;1.50;;
4452;SDS011;2239;48.152;11.584;2024-03-23T15:10:48;4.43;;;1.50;;
4452;SDS011;2239;48.152;11.584;2024-03-23T15:13:14;2.07;;;1.10;;
4452;SDS011;2239;48.152;11.584;2024-03-23T15:15:41;3.00;;;1.10;;
4452;SDS011;2239;48.152;11.584;2024-03-23T15:18:12;6.20;;;1.37;;
4452;SDS011;2239;48.152;11.584;2024-03-23T15:20:38;1.90;;;1.10;;
4452;SDS011;2239;48.152;11.584;2024-03-23T15:23:04;2.30;;;1.07;;
4452;SDS011;2239;48.152;11.584;2024-03-23T15:25:30;2.90;;;1.37;;
4452;SDS011;2239;48.152;11.584;2024-03-23T15:27:57;3.80;;;1.37;;
4452;SDS011;2239;48.152;11.584;2024-03-23T15:30:24;1.73;;;1.10;;
4452;SDS011;2239;48.152;11.584;2024-03-23T15:32:49;5.70;;;1.40;;
4452;SDS011;2239;48.152;11.584;2024-03-23T15:35:15;2.90;;;1.30;;
4452;SDS011;2239;48.152;11.584;2024-03-23T15:37:41;4.43;;;1.17;;
4452;SDS011;2239;48.152;11.584;2024-03-23T15:40:07;2.70;;;1.37;;
4452;SDS011;2239;48.152;11.584;2024-03-23T15:42:35;3.97;;;1.50;;
4452;SDS011;2239;48.152;11.584;2024-03-23T15:45:00;6.30;;;1.23;;
4452;SDS011;2239;48.152;11.584;2024-03-23T15:47:28;2.97;;;1.00;;
4452;SDS011;2239;48.152;11.584;2024-03-23T15:49:54;4.00;;;0.97;;
4452;SDS011;2239;48.152;11.584;2024-03-23T15:52:20;3.53;;;1.60;;
4452;SDS011;2239;48.152;11.584;2024-03-23T15:54:46;3.10;;;1.40;;
4452;SDS011;2239;48.152;11.584;2024-03-23T15:57:12;2.90;;;1.30;;
4452;SDS011;2239;48.152;11.584;2024-03-23T15:59:41;2.33;;;1.40;;
4452;SDS011;2239;48.152;11.584;2024-03-23T16:02:06;2.03;;;1.33;;
4452;SDS011;2239;48.152;11.584;2024-03-23T16:04:32;2.97;;;1.30;;
4452;SDS011;2239;48.152;11.584;2024-03-23T16:06:58;3.03;;;1.70;;
4452;SDS011;2239;48.152;11.584;2024-03-23T16:09:23;4.63;;;1.60;;
4452;SDS011;2239;48.152;11.584;2024-03-23T16:11:49;2.60;;;1.37;;